Time;durP1;ratioP1;P1;durP2;ratioP2;P2;SDS_P1;SDS_P2;PMS_P1;PMS_P2;Temp;Humidity;BMP_temperature;BMP_pressure;BME280_temperature;BME280_humidity;BME280_pressure;Samples;Min_cycle;Max_cycle;Signal;HPM_P1;HPM_P2
2021/01/20 00:00:27;;;;;;;36.75;17.85;;;;;;;3.12;74.29;99471.52;2228833;78;33523;-62
2021/01/20 00:03:31;;;;;;;34.20;17.65;;;;;;;3.11;74.22;99468.90;2236875;78;27591;-62
2021/01/20 00:06:34;;;;;;;34.85;18.07;;;;;;;3.08;74.21;99465.02;2219540;80;27748;-62
2021/01/20 00:09:36;;;;;;;31.30;15.30;;;;;;;3.06;74.38;99473.49;2220073;78;28904;-61
2021/01/20 00:12:39;;;;;;;35.50;16.55;;;;;;;3.05;74.37;99460.70;2248319;78;31184;-68
2021/01/20 00:15:42;;;;;;;32.65;16.02;;;;;;;3.05;74.35;99458.05;2259394;78;33124;-62
2021/01/20 00:18:45;;;;;;;32.00;16.48;;;;;;;3.06;74.37;99465.08;2258551;78;28201;-63
2021/01/20 00:21:47;;;;;;;33.38;17.15;;;;;;;3.07;74.48;99459.31;2257675;78;27711;-70
2021/01/20 00:24:49;;;;;;;33.23;17.07;;;;;;;3.07;74.44;99462.84;2252938;78;30133;-66
2021/01/20 00:27:51;;;;;;;29.57;17.17;;;;;;;3.04;74.41;99462.94;2244584;78;31134;-62
2021/01/20 00:30:56;;;;;;;29.52;15.72;;;;;;;3.05;74.56;99471.29;2221914;78;33121;-62
2021/01/20 00:33:57;;;;;;;27.95;15.20;;;;;;;3.06;74.56;99462.44;2250523;78;28910;-62
2021/01/20 00:37:00;;;;;;;35.70;16.93;;;;;;;3.03;74.43;99470.47;2267310;78;27669;-63
2021/01/20 00:40:06;;;;;;;33.88;16.35;;;;;;;2.99;74.54;99467.06;2266237;78;28997;-62
2021/01/20 00:43:08;;;;;;;33.95;16.07;;;;;;;2.96;74.54;99466.30;2266281;78;31113;-63
2021/01/20 00:46:10;;;;;;;27.98;16.25;;;;;;;2.94;74.71;99475.59;2266154;78;34159;-62
2021/01/20 00:49:12;;;;;;;29.92;15.20;;;;;;;2.95;74.72;99472.04;2253952;78;29738;-62
2021/01/20 00:52:14;;;;;;;26.17;14.55;;;;;;;2.96;74.80;99476.42;2225491;80;27709;-64
2021/01/20 00:55:17;;;;;;;25.88;14.50;;;;;;;2.98;74.76;99471.09;2224715;80;28820;-63
2021/01/20 00:58:19;;;;;;;29.15;15.70;;;;;;;2.99;74.83;99473.68;2225994;80;31190;-65
2021/01/20 01:01:21;;;;;;;32.93;15.68;;;;;;;3.02;74.92;99472.27;2228749;78;34385;-65
2021/01/20 01:04:27;;;;;;;28.77;15.30;;;;;;;3.01;74.91;99469.20;2226174;80;29794;-62
2021/01/20 01:07:29;;;;;;;29.20;14.73;;;;;;;3.02;74.86;99466.97;2225926;80;27684;-63
2021/01/20 01:10:31;;;;;;;30.77;15.10;;;;;;;3.01;74.92;99468.33;2232623;78;28875;-62
2021/01/20 01:13:33;;;;;;;31.23;15.75;;;;;;;3.01;74.99;99470.97;2242255;79;32200;-62
2021/01/20 01:16:35;;;;;;;27.70;15.43;;;;;;;3.02;74.98;99467.41;2253687;78;34075;-62
2021/01/20 01:19:37;;;;;;;28.07;14.13;;;;;;;3.02;74.97;99474.91;2260279;78;28841;-62
2021/01/20 01:22:39;;;;;;;22.45;12.85;;;;;;;2.99;75.01;99468.39;2225956;78;27629;-63
2021/01/20 01:25:41;;;;;;;23.20;13.13;;;;;;;2.98;75.02;99477.23;2225972;80;28934;-62
2021/01/20 01:28:44;;;;;;;26.80;12.55;;;;;;;2.97;75.09;99468.89;2227804;78;31182;-62
2021/01/20 01:31:47;;;;;;;25.37;12.65;;;;;;;2.98;75.16;99465.33;2215890;79;34029;-62
2021/01/20 01:34:49;;;;;;;25.05;12.63;;;;;;;3.00;75.24;99471.88;2139724;83;28851;-63
2021/01/20 01:37:51;;;;;;;22.10;13.30;;;;;;;3.01;75.23;99470.53;2194774;81;27673;-62
2021/01/20 01:40:54;;;;;;;24.70;13.38;;;;;;;3.05;75.25;99469.97;2198178;78;28821;-63
2021/01/20 01:43:56;;;;;;;21.20;12.60;;;;;;;3.09;75.35;99465.43;2162139;81;32054;-62
2021/01/20 01:46:58;;;;;;;24.27;13.22;;;;;;;3.13;75.32;99460.02;2145166;81;33125;-62
2021/01/20 01:50:00;;;;;;;27.75;13.58;;;;;;;3.14;75.26;99456.45;2207987;80;28861;-66
2021/01/20 01:53:02;;;;;;;28.98;16.10;;;;;;;3.15;75.30;99465.24;2208397;80;27663;-62
2021/01/20 01:56:06;;;;;;;31.35;15.70;;;;;;;3.14;75.23;99466.16;2225587;79;28826;-62
2021/01/20 01:59:08;;;;;;;42.83;19.52;;;;;;;3.12;75.30;99471.52;2208695;79;31143;-65
2021/01/20 02:02:11;;;;;;;39.33;17.55;;;;;;;3.11;75.28;99475.52;2214899;79;33501;-63
2021/01/20 02:05:14;;;;;;;37.65;18.02;;;;;;;3.10;75.37;99473.78;2247970;79;28882;-62
2021/01/20 02:08:16;;;;;;;36.38;18.12;;;;;;;3.10;75.34;99468.48;2239796;78;27642;-62
2021/01/20 02:11:36;;;;;;;39.80;18.40;;;;;;;3.11;75.42;99474.19;2244647;79;29289;-62
2021/01/20 02:14:56;;;;;;;37.17;19.30;;;;;;;3.14;75.44;99474.98;2248357;79;32108;-62
2021/01/20 02:18:17;;;;;;;33.65;18.35;;;;;;;3.16;75.48;99475.77;2246639;79;33546;-62
2021/01/20 02:21:43;;;;;;;29.45;16.62;;;;;;;3.20;75.46;99480.52;2216275;78;28714;-62
2021/01/20 02:25:22;;;;;;;30.17;16.45;;;;;;;3.20;75.45;99480.52;2248130;79;27849;-65
2021/01/20 02:28:54;;;;;;;26.30;14.38;;;;;;;3.17;75.43;99480.62;2248078;79;29794;-70
2021/01/20 02:31:57;;;;;;;32.85;16.67;;;;;;;3.13;75.45;99483.83;2222798;79;32135;-72
2021/01/20 02:34:59;;;;;;;25.35;13.83;;;;;;;3.09;75.60;99480.87;2229392;79;34266;-72
2021/01/20 02:38:03;;;;;;;18.20;11.30;;;;;;;3.08;75.66;99485.75;2249011;79;28844;-68
2021/01/20 02:41:06;;;;;;;23.98;13.32;;;;;;;3.10;75.71;99484.36;2216294;78;27709;-71
2021/01/20 02:44:08;;;;;;;24.75;12.50;;;;;;;3.10;75.79;99485.69;2214335;78;28830;-70
2021/01/20 02:47:10;;;;;;;22.45;14.25;;;;;;;3.13;75.85;99491.77;2250921;78;31125;-71
2021/01/20 02:50:13;;;;;;;21.62;13.03;;;;;;;3.19;75.96;99489.38;2235644;79;33139;-69
2021/01/20 02:53:19;;;;;;;22.82;13.03;;;;;;;3.23;75.94;99484.37;2248046;79;28842;-70
2021/01/20 02:56:23;;;;;;;22.30;13.40;;;;;;;3.26;75.96;99491.36;2248283;79;27816;-69
2021/01/20 02:59:26;;;;;;;20.30;13.08;;;;;;;3.29;75.87;99492.59;2219406;78;28825;-68
2021/01/20 03:02:29;;;;;;;18.80;11.88;;;;;;;3.30;75.95;99494.33;2209317;79;30411;-70
2021/01/20 03:05:32;;;;;;;15.85;11.57;;;;;;;3.32;75.89;99493.79;2208789;80;33594;-70
2021/01/20 03:08:34;;;;;;;19.40;11.08;;;;;;;3.34;75.95;99495.49;2190891;80;28921;-69
2021/01/20 03:11:49;;;;;;;17.02;10.00;;;;;;;3.35;76.00;99497.67;2209312;79;27816;-70
2021/01/20 03:14:52;;;;;;;16.62;9.98;;;;;;;3.34;75.95;99495.49;2208305;79;29727;-67
2021/01/20 03:17:54;;;;;;;14.00;8.90;;;;;;;3.35;76.03;99496.34;2231340;79;31123;-70
2021/01/20 03:20:57;;;;;;;15.55;9.80;;;;;;;3.39;75.99;99501.95;2247585;79;33198;-70
2021/01/20 03:23:59;;;;;;;14.07;9.55;;;;;;;3.44;76.03;99503.12;2234434;78;29819;-70
2021/01/20 03:27:01;;;;;;;15.88;10.58;;;;;;;3.49;76.05;99502.52;2249268;78;27782;-70
2021/01/20 03:30:06;;;;;;;13.98;9.18;;;;;;;3.52;76.04;99501.53;2254719;78;28623;-70
2021/01/20 03:33:09;;;;;;;15.58;9.83;;;;;;;3.51;75.97;99500.69;2247317;78;31324;-70
2021/01/20 03:36:11;;;;;;;15.58;10.32;;;;;;;3.51;75.92;99500.69;2255414;78;33121;-63
2021/01/20 03:39:13;;;;;;;14.35;10.32;;;;;;;3.51;75.94;99502.01;2251421;78;28884;-70
2021/01/20 03:42:15;;;;;;;17.75;12.35;;;;;;;3.53;75.97;99505.91;2239030;78;27794;-69
2021/01/20 03:45:18;;;;;;;21.40;12.37;;;;;;;3.52;75.95;99513.02;2208124;79;28604;-70
2021/01/20 03:48:20;;;;;;;21.00;12.75;;;;;;;3.52;75.95;99513.45;2234103;79;31116;-70
2021/01/20 03:51:22;;;;;;;21.17;13.10;;;;;;;3.52;75.92;99511.69;2223212;79;33112;-70
2021/01/20 03:54:25;;;;;;;28.15;13.48;;;;;;;3.53;75.86;99511.21;2207986;79;28861;-70
2021/01/20 03:57:27;;;;;;;25.02;13.50;;;;;;;3.53;75.83;99512.53;2194380;81;28216;-69
2021/01/20 04:00:29;;;;;;;32.00;14.03;;;;;;;3.53;75.84;99510.77;2139634;82;28828;-70
2021/01/20 04:03:31;;;;;;;37.33;16.48;;;;;;;3.50;75.78;99509.55;2227574;79;32108;-68
2021/01/20 04:06:34;;;;;;;38.60;16.02;;;;;;;3.50;75.83;99505.58;2208559;80;34049;-71
2021/01/20 04:09:37;;;;;;;36.70;16.75;;;;;;;3.50;75.85;99513.52;2232415;79;28867;-71
2021/01/20 04:12:39;;;;;;;39.80;15.75;;;;;;;3.52;75.87;99510.80;2234792;79;27845;-69
2021/01/20 04:15:41;;;;;;;38.55;17.27;;;;;;;3.50;75.85;99519.66;2248153;79;28877;-65
2021/01/20 04:18:44;;;;;;;39.75;17.52;;;;;;;3.46;75.73;99525.12;2229828;79;31126;-70
2021/01/20 04:21:48;;;;;;;39.88;17.95;;;;;;;3.45;75.69;99522.94;2208768;79;33185;-68
2021/01/20 04:24:50;;;;;;;43.23;18.15;;;;;;;3.36;75.50;99518.41;2208564;80;28879;-70
2021/01/20 04:27:52;;;;;;;43.08;17.35;;;;;;;3.27;75.63;99522.22;2226616;79;27761;-68
2021/01/20 04:30:54;;;;;;;45.15;17.52;;;;;;;3.23;75.70;99523.22;2247377;79;28893;-69
2021/01/20 04:33:56;;;;;;;43.78;16.70;;;;;;;3.20;75.73;99524.20;2246734;78;31133;-70
2021/01/20 04:36:59;;;;;;;53.23;19.52;;;;;;;3.16;75.63;99523.41;2224105;79;33334;-68
2021/01/20 04:40:01;;;;;;;55.60;19.70;;;;;;;3.13;75.69;99518.23;2224057;79;30094;-69
2021/01/20 04:43:03;;;;;;;61.40;20.17;;;;;;;3.10;75.67;99529.35;2235901;79;27624;-70
2021/01/20 04:46:07;;;;;;;63.25;19.90;;;;;;;3.09;75.77;99526.30;2226997;79;28882;-70
2021/01/20 04:49:14;;;;;;;53.10;19.57;;;;;;;3.09;75.73;99524.53;2246908;79;31147;-70
2021/01/20 04:52:19;;;;;;;48.92;16.67;;;;;;;3.07;75.62;99523.70;2235853;79;33583;-67
2021/01/20 04:55:22;;;;;;;34.08;14.78;;;;;;;3.01;75.53;99511.55;2249314;78;30038;-70
2021/01/20 04:58:24;;;;;;;26.68;13.65;;;;;;;2.91;75.56;99507.43;2218363;78;27794;-69
2021/01/20 05:01:26;;;;;;;26.02;12.23;;;;;;;2.82;75.62;99503.77;2209206;79;28977;-70
2021/01/20 05:04:29;;;;;;;25.37;12.47;;;;;;;2.73;75.62;99499.14;2208500;79;32185;-69
2021/01/20 05:07:31;;;;;;;22.93;11.60;;;;;;;2.69;75.76;99501.94;2222500;79;33136;-70
2021/01/20 05:10:34;;;;;;;21.70;10.70;;;;;;;2.63;75.84;99502.14;2248525;79;29228;-70
2021/01/20 05:13:36;;;;;;;20.97;10.93;;;;;;;2.59;75.88;99502.66;2212898;79;27631;-69
2021/01/20 05:16:40;;;;;;;20.62;10.55;;;;;;;2.55;76.00;99497.94;2208637;79;29785;-69
2021/01/20 05:19:42;;;;;;;20.50;11.45;;;;;;;2.54;76.10;99501.48;2208560;80;31393;-70
2021/01/20 05:22:59;;;;;;;18.32;11.05;;;;;;;2.54;76.22;99502.81;2233058;79;33541;-68
2021/01/20 05:26:02;;;;;;;23.15;12.10;;;;;;;2.52;76.20;99495.84;2247536;79;29170;-70
2021/01/20 05:29:06;;;;;;;23.55;13.18;;;;;;;2.51;76.30;99505.53;2248550;79;27673;-68
2021/01/20 05:32:19;;;;;;;19.30;9.90;;;;;;;2.51;76.36;99508.18;2231972;79;28829;-69
2021/01/20 05:35:21;;;;;;;30.52;15.03;;;;;;;2.51;76.37;99504.69;2200063;78;31149;-68
2021/01/20 05:38:45;;;;;;;30.00;14.90;;;;;;;2.46;76.38;99502.62;2194344;81;34067;-69
2021/01/20 05:41:48;;;;;;;28.38;14.68;;;;;;;2.43;76.48;99507.55;2209270;78;29165;-68
2021/01/20 05:45:03;;;;;;;22.40;13.80;;;;;;;2.41;76.56;99496.16;2190773;79;27623;-70
2021/01/20 05:48:10;;;;;;;26.00;14.80;;;;;;;2.38;76.72;99492.27;2247977;79;28855;-62
2021/01/20 05:51:15;;;;;;;31.68;15.55;;;;;;;2.36;76.75;99508.19;2244820;79;27692;-61
2021/01/20 05:54:34;;;;;;;46.35;18.02;;;;;;;2.39;76.75;99515.16;2208534;80;33975;-61
2021/01/20 05:57:37;;;;;;;55.52;22.60;;;;;;;2.40;76.78;99518.21;2208235;80;29239;-63
2021/01/20 06:00:39;;;;;;;55.63;22.93;;;;;;;2.42;76.85;99521.21;2200751;79;28058;-62
2021/01/20 06:03:42;;;;;;;55.55;22.15;;;;;;;2.46;76.92;99514.08;2244742;79;28833;-61
2021/01/20 06:06:46;;;;;;;40.20;17.90;;;;;;;2.49;76.98;99521.05;2247170;79;31183;-62
2021/01/20 06:09:49;;;;;;;22.93;11.90;;;;;;;2.51;77.02;99516.11;2248557;79;33109;-63
2021/01/20 06:12:53;;;;;;;25.70;14.58;;;;;;;2.54;77.07;99523.11;2209190;79;30080;-65
2021/01/20 06:16:18;;;;;;;23.43;14.47;;;;;;;2.54;77.05;99517.82;2177121;80;27623;-61
2021/01/20 06:19:21;;;;;;;22.07;13.72;;;;;;;2.55;77.19;99504.55;2227668;79;28872;-62
2021/01/20 06:22:24;;;;;;;19.50;12.43;;;;;;;2.58;77.21;99506.22;2247422;79;31572;-61
2021/01/20 06:25:33;;;;;;;18.27;12.10;;;;;;;2.61;77.22;99506.13;2247771;79;33996;-61
2021/01/20 06:28:38;;;;;;;19.32;12.55;;;;;;;2.66;77.19;99514.80;2227358;79;29159;-62
2021/01/20 06:31:42;;;;;;;;;;;;;;;2.73;77.27;99513.69;2230145;78;27625;-61
2021/01/20 06:34:56;;;;;;;19.87;11.53;;;;;;;2.79;77.32;99517.08;2208304;80;28832;-61
2021/01/20 06:38:00;;;;;;;19.27;12.15;;;;;;;2.85;77.38;99524.36;2208914;79;31611;-62
2021/01/20 06:41:12;;;;;;;16.90;11.93;;;;;;;2.92;77.33;99522.39;2209011;79;33107;-61
2021/01/20 06:44:15;;;;;;;21.23;11.25;;;;;;;2.97;77.28;99520.48;2201052;79;29148;-62
2021/01/20 06:47:17;;;;;;;18.25;12.75;;;;;;;3.01;77.22;99525.21;2225838;79;27672;-62
2021/01/20 06:50:20;;;;;;;17.05;11.83;;;;;;;3.04;77.20;99526.00;2214095;79;28623;-63
2021/01/20 06:53:24;;;;;;;17.15;12.13;;;;;;;3.07;77.22;99527.67;2238817;79;31610;-65
2021/01/20 06:56:48;;;;;;;19.73;13.70;;;;;;;3.10;77.19;99518.33;2248170;79;33177;-62
2021/01/20 07:00:13;;;;;;;28.73;15.08;;;;;;;3.14;77.22;99520.41;2248542;79;29384;-62
2021/01/20 07:03:16;;;;;;;27.73;14.95;;;;;;;3.17;77.13;99522.97;2216889;79;27639;-61
2021/01/20 07:06:39;;;;;;;28.83;16.55;;;;;;;3.21;77.17;99514.45;2153230;79;29181;-62
2021/01/20 07:10:00;;;;;;;37.08;19.12;;;;;;;3.26;77.18;99517.36;2248138;78;31261;-64
2021/01/20 07:13:17;;;;;;;34.65;20.45;;;;;;;3.33;77.16;99520.67;2247023;79;33062;-64
2021/01/20 07:16:20;;;;;;;35.28;20.15;;;;;;;3.38;77.19;99508.16;2240853;79;29219;-68
2021/01/20 07:19:25;;;;;;;41.65;20.72;;;;;;;3.43;77.14;99507.56;2228468;78;27722;-65
2021/01/20 07:22:29;;;;;;;37.00;20.37;;;;;;;3.46;77.13;99506.14;2209521;79;29778;-62
2021/01/20 07:25:31;;;;;;;34.18;18.75;;;;;;;3.53;77.14;99504.15;2231499;79;31351;-65
2021/01/20 07:28:35;;;;;;;31.40;18.15;;;;;;;3.58;77.07;99500.87;2236362;79;33138;-64
2021/01/20 07:31:46;;;;;;;22.90;12.75;;;;;;;3.62;77.08;99500.33;2239622;79;28617;-68
2021/01/20 07:34:48;;;;;;;38.25;19.90;;;;;;;3.67;77.01;99502.34;2238378;78;27712;-66
2021/01/20 07:37:59;;;;;;;38.25;23.85;;;;;;;3.76;77.03;99507.34;2225650;80;28168;-67
2021/01/20 07:41:20;;;;;;;26.90;16.02;;;;;;;3.87;77.02;99501.67;2254785;78;31510;-66
2021/01/20 07:44:24;;;;;;;28.52;16.67;;;;;;;3.96;76.90;99499.16;2257074;78;33087;-66
2021/01/20 07:47:26;;;;;;;38.38;17.90;;;;;;;4.04;76.74;99501.06;2265638;78;29411;-64
2021/01/20 07:50:47;;;;;;;29.77;17.85;;;;;;;4.13;76.63;99500.34;2235618;78;27709;-66
2021/01/20 07:53:57;;;;;;;35.78;19.98;;;;;;;4.19;76.61;99498.33;2203105;78;28906;-66
2021/01/20 07:57:19;;;;;;;36.53;18.77;;;;;;;4.33;76.55;99495.16;2208103;79;27852;-65
2021/01/20 08:00:22;;;;;;;34.25;19.45;;;;;;;4.35;76.62;99503.91;2170413;79;27613;-66
2021/01/20 08:03:36;;;;;;;34.08;19.52;;;;;;;4.44;76.45;99503.19;2182131;81;28858;-67
2021/01/20 08:06:42;;;;;;;32.00;18.45;;;;;;;4.49;76.25;99499.44;2174233;81;31157;-66
2021/01/20 08:09:45;;;;;;;31.85;17.30;;;;;;;4.58;76.25;99496.02;2182343;81;34400;-66
2021/01/20 08:12:51;;;;;;;33.25;15.05;;;;;;;4.64;76.05;99490.48;2144972;82;29488;-64
2021/01/20 08:15:55;;;;;;;30.10;15.95;;;;;;;4.69;75.93;99489.38;2132226;82;27730;-68
2021/01/20 08:18:58;;;;;;;36.45;18.67;;;;;;;4.80;76.10;99478.84;2113206;83;28800;-67
2021/01/20 08:22:06;;;;;;;42.00;20.97;;;;;;;4.91;75.86;99477.06;2180505;81;31199;-68
2021/01/20 08:25:09;;;;;;;28.62;17.52;;;;;;;4.98;75.68;99479.88;2048892;85;33134;-67
2021/01/20 08:28:16;;;;;;;52.95;28.30;;;;;;;5.04;75.68;99480.09;2145016;83;28976;-64
2021/01/20 08:31:21;;;;;;;40.80;21.75;;;;;;;5.08;75.51;99479.91;2113734;82;28200;-64
2021/01/20 08:34:24;;;;;;;48.42;20.88;;;;;;;5.15;75.51;99480.08;2082982;84;28816;-65
2021/01/20 08:37:36;;;;;;;93.15;38.45;;;;;;;5.21;75.18;99492.23;2125805;82;32172;-66
2021/01/20 08:40:38;;;;;;;69.97;32.53;;;;;;;5.26;75.23;99491.59;2149321;82;34544;-67
2021/01/20 08:43:41;;;;;;;113.57;52.05;;;;;;;5.35;75.26;99487.69;2142375;81;28875;-65
2021/01/20 08:46:53;;;;;;;57.43;30.40;;;;;;;5.43;75.27;99483.39;2144766;82;27875;-65
2021/01/20 08:49:55;;;;;;;31.77;16.45;;;;;;;5.51;75.10;99489.70;2149369;82;29076;-66
2021/01/20 08:53:00;;;;;;;24.50;13.90;;;;;;;5.58;74.90;99481.86;2124599;82;31195;-65
2021/01/20 08:56:03;;;;;;;15.13;10.20;;;;;;;5.65;74.78;99490.44;2104347;84;34068;-65
2021/01/20 08:59:05;;;;;;;20.77;10.53;;;;;;;5.73;74.58;99495.82;2098147;84;27745;-69
2021/01/20 09:02:20;;;;;;;17.07;10.30;;;;;;;5.84;74.72;99497.17;2113117;83;27631;-65
2021/01/20 09:05:34;;;;;;;15.18;9.60;;;;;;;5.92;74.65;99495.03;2132868;83;28715;-68
2021/01/20 09:08:37;;;;;;;20.02;11.40;;;;;;;6.02;74.40;99507.05;2132875;83;31233;-66
2021/01/20 09:11:40;;;;;;;22.60;14.73;;;;;;;6.08;73.79;99504.09;2132080;83;33122;-65
2021/01/20 09:14:42;;;;;;;24.75;15.18;;;;;;;6.10;73.89;99502.72;2133348;83;29776;-64
2021/01/20 09:17:46;;;;;;;34.63;22.73;;;;;;;6.15;73.77;99507.83;2130350;83;27608;-64
2021/01/20 09:20:49;;;;;;;30.30;17.12;;;;;;;6.19;73.95;99509.42;2114591;83;28874;-62
2021/01/20 09:23:52;;;;;;;25.48;14.93;;;;;;;6.22;73.57;99512.80;2122168;83;31229;-63
2021/01/20 09:26:57;;;;;;;18.12;11.35;;;;;;;6.28;73.50;99509.48;2111592;83;32926;-62
2021/01/20 09:30:00;;;;;;;23.10;13.32;;;;;;;6.30;73.37;99512.91;2100501;84;29856;-64
2021/01/20 09:33:04;;;;;;;20.50;11.95;;;;;;;6.30;73.07;99511.58;2110224;83;27657;-64
2021/01/20 09:36:07;;;;;;;24.65;14.98;;;;;;;6.28;72.99;99514.80;2111128;83;28818;-65
2021/01/20 09:39:09;;;;;;;23.40;15.45;;;;;;;6.26;72.82;99516.19;2121576;83;31125;-64
2021/01/20 09:42:12;;;;;;;26.15;15.35;;;;;;;6.26;72.79;99514.85;2117989;83;33849;-63
2021/01/20 09:45:18;;;;;;;24.57;14.73;;;;;;;6.28;72.54;99516.98;2131859;83;28871;-62
2021/01/20 09:48:22;;;;;;;22.42;13.50;;;;;;;6.28;72.51;99512.99;2120816;83;27934;-63
2021/01/20 09:51:28;;;;;;;18.92;11.18;;;;;;;6.30;72.37;99510.25;2114083;83;28881;-64
2021/01/20 09:54:30;;;;;;;40.17;27.48;;;;;;;6.30;72.07;99515.57;2128873;83;31264;-63
2021/01/20 09:57:36;;;;;;;56.25;40.10;;;;;;;6.30;71.92;99516.45;2116672;83;29155;-63
2021/01/20 10:00:39;;;;;;;34.47;26.00;;;;;;;6.31;72.14;99517.30;2098468;84;30438;-65
2021/01/20 10:03:42;;;;;;;52.25;35.95;;;;;;;6.31;71.90;99512.86;2100297;84;27686;-64
2021/01/20 10:06:44;;;;;;;34.73;27.10;;;;;;;6.34;71.54;99510.52;2101866;83;30328;-64
2021/01/20 10:09:46;;;;;;;23.55;18.00;;;;;;;6.38;71.73;99503.66;2078287;83;32136;-63
2021/01/20 10:12:50;;;;;;;20.30;14.43;;;;;;;6.47;71.73;99505.03;2089995;83;33553;-62
2021/01/20 10:15:52;;;;;;;16.37;11.12;;;;;;;6.56;71.61;99497.09;2088946;84;29820;-63
2021/01/20 10:18:55;;;;;;;15.30;9.28;;;;;;;6.71;71.47;99499.52;2111537;83;27678;-65
2021/01/20 10:22:00;;;;;;;35.13;16.60;;;;;;;6.82;71.38;99499.03;2110924;82;28908;-63
2021/01/20 10:25:07;;;;;;;33.15;14.13;;;;;;;6.93;70.71;99494.05;2112602;83;31154;-64
2021/01/20 10:28:09;;;;;;;22.62;11.43;;;;;;;7.05;71.01;99491.72;2116795;83;34488;-63
2021/01/20 10:31:12;;;;;;;18.02;9.05;;;;;;;7.15;70.60;99487.21;2114972;83;28875;-63
2021/01/20 10:34:14;;;;;;;25.70;13.45;;;;;;;7.26;70.56;99477.85;2112785;83;27744;-62
2021/01/20 10:37:17;;;;;;;35.50;18.02;;;;;;;7.36;70.51;99476.94;2122755;83;28653;-64
2021/01/20 10:40:19;;;;;;;137.70;65.95;;;;;;;7.45;70.33;99476.45;2110841;83;31610;-60
2021/01/20 10:43:22;;;;;;;138.12;71.25;;;;;;;7.50;69.69;99482.88;2113836;83;34054;-63
2021/01/20 10:46:28;;;;;;;89.92;46.77;;;;;;;7.51;69.56;99474.83;2110840;83;28847;-63
2021/01/20 10:49:30;;;;;;;72.65;41.73;;;;;;;7.57;69.69;99474.98;2117840;83;28250;-63
2021/01/20 10:52:34;;;;;;;37.08;20.52;;;;;;;7.66;69.47;99475.84;2107918;83;28852;-62
2021/01/20 10:55:36;;;;;;;31.12;18.73;;;;;;;7.75;69.10;99470.05;2116365;82;32723;-62
2021/01/20 10:58:38;;;;;;;30.45;20.00;;;;;;;7.80;68.98;99472.47;2118063;83;33205;-62
2021/01/20 11:01:43;;;;;;;22.70;15.32;;;;;;;7.83;68.77;99466.98;2095286;83;29419;-63
2021/01/20 11:04:46;;;;;;;32.20;19.15;;;;;;;7.87;68.79;99465.02;2103956;84;27769;-63
2021/01/20 11:07:48;;;;;;;51.15;32.63;;;;;;;7.88;68.32;99456.92;2096265;83;28935;-63
2021/01/20 11:10:50;;;;;;;30.12;15.95;;;;;;;7.93;68.32;99463.83;2095859;83;31145;-62
2021/01/20 11:13:52;;;;;;;40.15;23.32;;;;;;;7.99;67.98;99463.52;2095839;83;32916;-62
2021/01/20 11:16:56;;;;;;;24.60;13.88;;;;;;;8.01;67.87;99457.15;2100215;84;28872;-63
2021/01/20 11:19:58;;;;;;;21.15;11.15;;;;;;;8.09;67.53;99459.41;2093640;84;27790;-62
2021/01/20 11:23:01;;;;;;;23.77;11.80;;;;;;;8.12;66.95;99452.58;2096294;84;28863;-62
2021/01/20 11:26:07;;;;;;;19.82;11.28;;;;;;;8.16;67.06;99458.16;2090373;84;31166;-62
2021/01/20 11:29:09;;;;;;;17.65;10.90;;;;;;;8.18;66.43;99453.60;2073172;84;33124;-61
2021/01/20 11:32:12;;;;;;;24.80;16.67;;;;;;;8.20;66.41;99449.50;2111563;83;28769;-62
2021/01/20 11:35:14;;;;;;;26.15;17.90;;;;;;;8.22;66.19;99447.62;2119998;83;27742;-62
2021/01/20 11:38:17;;;;;;;31.95;18.23;;;;;;;8.27;66.69;99451.37;2090709;84;28917;-62
2021/01/20 11:41:19;;;;;;;20.35;11.68;;;;;;;8.33;66.32;99443.05;2095930;84;31239;-61
2021/01/20 11:44:22;;;;;;;18.35;12.47;;;;;;;8.40;66.13;99433.73;2103336;84;33127;-63
2021/01/20 11:47:24;;;;;;;16.20;8.65;;;;;;;8.46;65.93;99424.07;2094669;84;29845;-63
2021/01/20 11:50:27;;;;;;;19.77;10.08;;;;;;;8.54;65.75;99441.03;2104604;84;27762;-63
2021/01/20 11:53:29;;;;;;;18.95;11.33;;;;;;;8.57;65.25;99424.84;2100379;84;28796;-64
2021/01/20 11:56:32;;;;;;;19.77;10.40;;;;;;;8.60;65.29;99431.81;2092189;82;31194;-64
2021/01/20 11:59:34;;;;;;;18.60;11.60;;;;;;;8.65;65.38;99427.09;2133210;83;33126;-64
2021/01/20 12:02:38;;;;;;;12.63;8.13;;;;;;;8.74;65.41;99425.23;2133840;83;28849;-63
2021/01/20 12:05:40;;;;;;;13.72;7.62;;;;;;;8.86;65.08;99418.34;2133767;83;27747;-63
2021/01/20 12:08:43;;;;;;;7.72;5.35;;;;;;;8.93;65.12;99413.05;2127914;82;28863;-64
2021/01/20 12:11:47;;;;;;;9.60;5.45;;;;;;;9.00;65.08;99416.68;2133960;83;32407;-63
2021/01/20 12:14:49;;;;;;;8.63;4.70;;;;;;;9.07;64.75;99414.91;2133250;83;33330;-64
2021/01/20 12:17:51;;;;;;;13.20;6.80;;;;;;;9.10;64.55;99403.20;2118487;82;28860;-65
2021/01/20 12:20:54;;;;;;;14.63;6.45;;;;;;;9.10;64.37;99400.03;2098349;83;27779;-67
2021/01/20 12:23:56;;;;;;;17.57;11.00;;;;;;;9.10;64.09;99401.86;2107040;83;29673;-65
2021/01/20 12:27:00;;;;;;;42.65;26.73;;;;;;;9.09;63.72;99399.65;2101755;83;32128;-64
2021/01/20 12:30:03;;;;;;;48.08;17.57;;;;;;;9.07;63.70;99393.53;2133216;83;34119;-63
2021/01/20 12:33:06;;;;;;;56.63;25.43;;;;;;;9.07;63.62;99396.20;2133797;83;28866;-63
2021/01/20 12:36:09;;;;;;;81.08;32.93;;;;;;;9.04;63.13;99397.70;2133227;83;27734;-64
2021/01/20 12:39:12;;;;;;;34.88;15.23;;;;;;;9.03;63.62;99395.14;2133791;83;28715;-65
2021/01/20 12:42:15;;;;;;;63.80;23.18;;;;;;;9.02;63.20;99399.60;2133741;83;32028;-63
2021/01/20 12:45:18;;;;;;;48.65;17.75;;;;;;;8.96;63.19;99392.81;2134462;83;33100;-63
2021/01/20 12:48:21;;;;;;;27.37;11.78;;;;;;;8.95;63.16;99389.75;2134043;83;28862;-63
2021/01/20 12:51:23;;;;;;;41.83;18.07;;;;;;;8.91;62.94;99388.69;2134471;83;27602;-63
2021/01/20 12:54:25;;;;;;;50.65;20.10;;;;;;;8.86;63.02;99388.95;2134002;83;28843;-62
2021/01/20 12:57:28;;;;;;;31.90;13.98;;;;;;;8.81;62.73;99381.22;2130857;83;30949;-63
2021/01/20 13:00:30;;;;;;;27.22;11.90;;;;;;;8.73;62.51;99379.94;2126840;83;33605;-63
2021/01/20 13:03:34;;;;;;;26.10;13.08;;;;;;;8.67;63.00;99377.14;2159728;82;29169;-64
2021/01/20 13:06:37;;;;;;;25.62;12.43;;;;;;;8.64;62.73;99386.16;2177138;81;28159;-63
2021/01/20 13:09:40;;;;;;;31.42;14.25;;;;;;;8.60;62.96;99379.30;2177349;81;29798;-62
2021/01/20 13:12:43;;;;;;;25.15;11.88;;;;;;;8.57;62.97;99386.59;2174970;81;31141;-63
2021/01/20 13:15:49;;;;;;;37.38;16.40;;;;;;;8.51;62.45;99383.80;2168169;82;34460;-63
2021/01/20 13:18:52;;;;;;;28.73;12.73;;;;;;;8.44;62.63;99383.25;2143935;82;29230;-63
2021/01/20 13:21:55;;;;;;;26.80;10.95;;;;;;;8.39;62.59;99385.80;2137159;83;27696;-62
2021/01/20 13:24:58;;;;;;;10.78;5.60;;;;;;;8.31;62.70;99379.06;2138034;83;29373;-63
2021/01/20 13:28:01;;;;;;;13.78;6.30;;;;;;;8.25;62.54;99383.87;2137878;83;31139;-63
2021/01/20 13:31:04;;;;;;;16.77;6.95;;;;;;;8.15;62.43;99391.06;2094366;83;33749;-65
2021/01/20 13:34:08;;;;;;;12.35;6.70;;;;;;;8.06;62.03;99401.76;2166172;81;29188;-63
2021/01/20 13:37:11;;;;;;;14.03;6.97;;;;;;;7.96;62.42;99395.66;2171405;81;27675;-64
2021/01/20 13:40:15;;;;;;;12.78;7.05;;;;;;;7.88;62.49;99388.92;2179952;80;28828;-63
2021/01/20 13:43:18;;;;;;;51.17;27.43;;;;;;;7.82;62.56;99395.94;2216971;80;32484;-65
2021/01/20 13:46:20;;;;;;;82.85;58.87;;;;;;;7.76;62.55;99398.91;2215866;80;33172;-63
2021/01/20 13:49:23;;;;;;;36.93;23.87;;;;;;;7.70;62.67;99408.55;2216716;80;30117;-63
2021/01/20 13:52:26;;;;;;;20.27;11.18;;;;;;;7.64;62.71;99415.55;2210126;80;27608;-64
2021/01/20 13:55:28;;;;;;;17.17;9.73;;;;;;;7.58;62.73;99415.41;2164224;82;29714;-65
2021/01/20 13:58:32;;;;;;;22.32;12.75;;;;;;;7.52;62.77;99413.05;2185091;81;32388;-63
2021/01/20 14:01:35;;;;;;;25.70;14.87;;;;;;;7.48;62.85;99412.35;2187122;81;33553;-63
2021/01/20 14:04:39;;;;;;;23.00;13.78;;;;;;;7.44;62.96;99408.11;2173445;81;29179;-63
2021/01/20 14:07:41;;;;;;;19.87;12.05;;;;;;;7.38;62.94;99406.63;2180029;81;27969;-63
2021/01/20 14:10:43;;;;;;;27.37;17.60;;;;;;;7.35;63.06;99419.25;2192399;81;30236;-63
2021/01/20 14:13:46;;;;;;;19.35;9.95;;;;;;;7.29;63.04;99417.28;2191567;81;31057;-63
2021/01/20 14:16:49;;;;;;;21.57;10.48;;;;;;;7.24;62.95;99421.97;2150795;82;33120;-63
2021/01/20 14:19:52;;;;;;;18.95;9.43;;;;;;;7.17;63.13;99419.23;2151724;82;30043;-64